Terminal Aerodrome Forecast
Issued by NWS Northern Indiana

Home | Current Version | Previous Version | Graphics & Text | Print | Product List | Glossary On
Versions: 1 2 3 4 5 6 7 8 9 10 11 12 13 14 15 16
000
FTUS43 KIWX 221100
TAFFWA
TAF
KFWA 221120Z 2212/2312 20006KT P6SM SKC
     FM221800 21012KT P6SM SCT250
     FM230000 22007KT P6SM SCT050 BKN250
     FM231000 32012KT P6SM BKN020=

USA.gov is the U.S. government's official web portal to all federal, state and local government web resources and services.